Index of /release1/deviceFirmware

[ICO]NameLast modifiedSizeDescription

[DIR]Parent Directory  -  
[   ]0A_01_048B_Turbidity.bin29-Jun-2018 19:53 50K 
[   ]0A_02_048B_TurbidityB.bin29-Jun-2018 19:53 50K 
[   ]0A_03_048A_CentralWiper.bin13-Dec-2016 15:29 46K 
[   ]0B_01_0485_ChlA.bin30-May-2018 21:38 49K 
[   ]0B_02_0485_RWT.bin30-May-2018 21:38 49K 
[   ]0B_03_0485_BGAF.bin30-May-2018 21:38 49K 
[   ]0B_04_0485_BGAM.bin30-May-2018 21:38 49K 
[   ]0D_01_041E_ISENH4.bin06-Sep-2018 15:29 50K 
[   ]0D_02_041E_ISENO3.bin06-Sep-2018 15:29 50K 
[   ]0D_03_041E_ISECl.bin06-Sep-2018 15:29 50K 
[   ]02_01_0482_Temp.bin25-Aug-2017 19:06 43K 
[   ]04_01_048E_Conductivity.bin25-Aug-2017 19:07 64K 
[   ]05_02_0489_LDO.bin25-Aug-2017 19:07 55K 
[   ]06_01_0487_pH.bin25-Aug-2017 19:07 45K 
[   ]08_01_0487_Depth10.bin01-Aug-2017 21:05 50K 
[   ]08_02_0487_Depth25.bin01-Aug-2017 21:05 47K 
[   ]08_03_0487_Depth100.bin01-Aug-2017 21:05 47K 
[   ]08_04_0487_Depth200.bin01-Aug-2017 21:05 47K 
[   ]97_01_0487_pHORP.bin25-Aug-2017 19:08 46K 
[   ]98_01_0482_TempCirc.bin25-Aug-2017 19:08 44K 
[   ]99_01_041E_ISENH4NO3.bin06-Sep-2018 15:29 51K 
[   ]C8_01_04E5_ComMod.bin15-Jul-2014 21:28 308K 
[   ]C8_02_04E5_ComSDI12.bin15-Jul-2014 21:28 308K 
[   ]C8_03_04E5_ComMB232.bin15-Jul-2014 21:28 308K 
[   ]C8_04_04E5_ComMB485.bin15-Jul-2014 21:28 308K 
[   ]C8_05_04E5_ComTTY.bin15-Jul-2014 21:28 308K 
[   ]C9_01_048E_Surveyor.bin21-Nov-2016 14:58 4.6M 
[   ]CA_01_048F_HL4.bin25-Aug-2017 19:08 119K 
[   ]CA_02_048F_HL7.bin25-Aug-2017 19:08 119K 
[TXT]CRCList.txt09-Oct-2018 22:25 940  
[   ]DB_01_0040_HCFF.bin09-Oct-2018 22:25 1.3M 
[DIR]archive/09-Oct-2018 22:25 -  

Apache/2.2.15 (CentOS) Server at viperftp.satlantic.com Port 80